createdAt,value
2023-04-10T00:01:35.825Z,10.62
2023-04-10T00:04:07.121Z,10.58
2023-04-10T00:06:37.826Z,10.60
2023-04-10T00:09:09.230Z,10.53
2023-04-10T00:11:36.291Z,10.51
2023-04-10T00:14:03.758Z,10.44
2023-04-10T00:16:31.037Z,10.44
2023-04-10T00:19:03.996Z,10.50
2023-04-10T00:21:31.435Z,10.47
2023-04-10T00:24:02.253Z,10.40
2023-04-10T00:26:29.548Z,10.41
2023-04-10T00:28:56.780Z,10.40
2023-04-10T00:31:25.963Z,10.39
2023-04-10T00:33:56.464Z,10.32
2023-04-10T00:36:28.614Z,10.27
2023-04-10T00:38:56.066Z,10.26
2023-04-10T00:41:26.153Z,10.21
2023-04-10T00:43:56.480Z,10.16
2023-04-10T00:46:23.869Z,10.18
2023-04-10T00:48:56.421Z,10.12
2023-04-10T00:51:26.570Z,10.10
2023-04-10T00:53:55.198Z,10.07
2023-04-10T00:56:25.006Z,10.08
2023-04-10T00:58:52.352Z,10.05
2023-04-10T01:01:20.516Z,9.99
2023-04-10T01:03:55.268Z,10.05
2023-04-10T01:06:42.618Z,10.10
2023-04-10T01:09:14.754Z,10.02
2023-04-10T01:11:51.178Z,9.99
2023-04-10T01:14:38.162Z,9.91
2023-04-10T01:17:10.364Z,9.93
2023-04-10T01:20:00.836Z,9.88
2023-04-10T01:22:36.817Z,9.88
2023-04-10T01:25:32.935Z,9.86
2023-04-10T01:28:21.909Z,9.86
2023-04-10T01:30:54.491Z,9.86
2023-04-10T01:33:26.442Z,9.82
2023-04-10T01:35:57.712Z,9.78
2023-04-10T01:38:28.630Z,9.81
2023-04-10T01:40:56.079Z,9.83
2023-04-10T01:43:26.276Z,9.81
2023-04-10T01:45:55.874Z,9.80
2023-04-10T01:48:28.841Z,9.74
2023-04-10T01:50:56.770Z,9.75
2023-04-10T01:53:25.980Z,9.71
2023-04-10T01:55:53.834Z,9.79
2023-04-10T01:58:20.773Z,9.76
2023-04-10T02:00:47.786Z,9.74
2023-04-10T02:03:19.620Z,9.73
2023-04-10T02:05:57.063Z,9.74
2023-04-10T02:08:31.769Z,9.75
2023-04-10T02:11:04.315Z,9.70
2023-04-10T02:13:39.792Z,9.69
2023-04-10T02:16:14.502Z,9.64
2023-04-10T02:18:45.561Z,9.64
2023-04-10T02:21:12.928Z,9.61
2023-04-10T02:23:40.525Z,9.60
2023-04-10T02:26:08.768Z,9.62
2023-04-10T02:28:38.223Z,9.54
2023-04-10T02:31:06.108Z,9.51
2023-04-10T02:33:33.280Z,9.51
2023-04-10T02:36:02.196Z,9.49
2023-04-10T02:38:30.936Z,9.47
2023-04-10T02:41:00.802Z,9.43
2023-04-10T02:43:27.969Z,9.38
2023-04-10T02:45:57.464Z,9.38
2023-04-10T02:48:25.666Z,9.40
2023-04-10T02:50:57.068Z,9.39
2023-04-10T02:53:26.185Z,9.37
2023-04-10T02:55:54.118Z,9.38
2023-04-10T02:58:22.568Z,9.37
2023-04-10T03:00:50.816Z,9.34
2023-04-10T03:03:21.779Z,9.37
2023-04-10T03:05:50.549Z,9.32
2023-04-10T03:08:19.974Z,9.29
2023-04-10T03:10:51.682Z,9.28
2023-04-10T03:13:19.924Z,9.30
2023-04-10T03:15:49.341Z,9.25
2023-04-10T03:18:17.545Z,9.25
2023-04-10T03:20:45.469Z,9.19
2023-04-10T03:23:12.890Z,9.24
2023-04-10T03:25:39.909Z,9.21
2023-04-10T03:28:08.849Z,9.18
2023-04-10T03:30:37.286Z,9.12
2023-04-10T03:33:04.776Z,9.12
2023-04-10T03:35:31.964Z,9.11
2023-04-10T03:37:59.069Z,9.09
2023-04-10T03:40:28.201Z,9.08
2023-04-10T03:42:55.221Z,9.03
2023-04-10T03:45:23.894Z,9.06
2023-04-10T03:48:00.226Z,9.04
2023-04-10T03:50:27.424Z,9.00
2023-04-10T03:52:54.540Z,9.03
2023-04-10T03:55:21.810Z,8.99
2023-04-10T03:57:49.365Z,8.99
2023-04-10T04:00:18.298Z,9.02
2023-04-10T04:02:50.726Z,9.01
2023-04-10T04:05:18.491Z,8.98
2023-04-10T04:07:45.571Z,8.94
2023-04-10T04:10:12.770Z,8.96
2023-04-10T04:12:39.946Z,8.97
2023-04-10T04:15:10.293Z,8.99
2023-04-10T04:17:38.731Z,8.93
2023-04-10T04:20:08.868Z,8.96
2023-04-10T04:22:35.916Z,8.95
2023-04-10T04:25:03.279Z,8.94
2023-04-10T04:27:30.360Z,8.97
2023-04-10T04:29:57.629Z,8.97
2023-04-10T04:32:24.949Z,8.98
2023-04-10T04:34:51.862Z,9.01
2023-04-10T04:37:20.297Z,9.00
2023-04-10T04:39:50.050Z,8.98
2023-04-10T04:42:17.101Z,9.02
2023-04-10T04:44:44.229Z,9.06
2023-04-10T04:47:11.572Z,9.05
2023-04-10T04:49:38.561Z,9.06
2023-04-10T04:52:05.649Z,9.02
2023-04-10T04:54:34.338Z,9.02
2023-04-10T04:57:01.769Z,9.02
2023-04-10T04:59:29.948Z,9.03
2023-04-10T05:02:00.162Z,9.08
2023-04-10T05:04:27.639Z,9.08
2023-04-10T05:06:55.818Z,9.14
2023-04-10T05:09:26.160Z,9.16
2023-04-10T05:11:57.614Z,9.19
2023-04-10T05:14:24.696Z,9.20
2023-04-10T05:16:54.935Z,9.19
2023-04-10T05:19:49.506Z,9.23
2023-04-10T05:22:18.842Z,9.28
2023-04-10T05:24:46.063Z,9.27
2023-04-10T05:27:14.549Z,9.32
2023-04-10T05:29:41.748Z,9.42
2023-04-10T05:32:09.200Z,9.41
2023-04-10T05:34:39.158Z,9.47
2023-04-10T05:37:08.444Z,9.52
2023-04-10T05:39:39.164Z,9.51
2023-04-10T05:42:09.811Z,9.65
2023-04-10T05:44:38.432Z,9.66
2023-04-10T05:47:08.753Z,9.71
2023-04-10T05:49:36.276Z,9.68
2023-04-10T05:52:03.549Z,9.72
2023-04-10T05:54:30.832Z,9.71
2023-04-10T05:56:58.023Z,9.78
2023-04-10T05:59:25.333Z,9.77
2023-04-10T06:01:53.707Z,9.78
2023-04-10T06:04:23.856Z,9.76
2023-04-10T06:06:51.348Z,9.86
2023-04-10T06:09:18.786Z,9.84
2023-04-10T06:11:48.242Z,9.85
2023-04-10T06:14:17.916Z,9.85
2023-04-10T06:16:45.390Z,9.87
2023-04-10T06:19:20.192Z,10.02
2023-04-10T06:21:53.940Z,9.95
2023-04-10T06:24:23.039Z,9.97
2023-04-10T06:26:51.750Z,10.01
2023-04-10T06:29:19.138Z,9.87
2023-04-10T06:31:46.152Z,9.86
2023-04-10T06:34:13.449Z,9.81
2023-04-10T06:36:42.652Z,10.01
2023-04-10T06:39:09.802Z,9.88
2023-04-10T06:41:39.528Z,9.83
2023-04-10T06:44:06.463Z,9.95
2023-04-10T06:46:34.887Z,9.88
2023-04-10T06:49:03.274Z,10.18
2023-04-10T06:51:31.504Z,10.07
2023-04-10T06:54:02.118Z,10.02
2023-04-10T06:56:30.904Z,10.10
2023-04-10T06:59:06.738Z,10.13
2023-04-10T07:01:34.063Z,10.18
2023-04-10T07:04:03.830Z,10.23
2023-04-10T07:06:33.782Z,10.22
2023-04-10T07:09:02.181Z,10.36
2023-04-10T07:11:29.724Z,10.51
2023-04-10T07:13:59.600Z,10.51
2023-04-10T07:16:27.893Z,10.62
2023-04-10T07:18:56.700Z,10.69
2023-04-10T07:21:24.332Z,10.97
2023-04-10T07:23:51.684Z,10.75
2023-04-10T07:26:20.782Z,10.95
2023-04-10T07:28:48.260Z,10.99
2023-04-10T07:31:17.900Z,11.00
2023-04-10T07:33:45.864Z,11.01
2023-04-10T07:36:13.498Z,11.08
2023-04-10T07:38:41.898Z,11.16
2023-04-10T07:41:10.570Z,11.24
2023-04-10T07:43:39.117Z,11.40
2023-04-10T07:46:07.539Z,11.22
2023-04-10T07:48:34.943Z,11.59
2023-04-10T07:51:06.462Z,11.53
2023-04-10T07:53:40.172Z,11.68
2023-04-10T07:56:16.488Z,11.40
2023-04-10T07:58:45.931Z,11.72
2023-04-10T08:01:13.470Z,11.68
2023-04-10T08:03:42.056Z,11.78
2023-04-10T08:06:11.078Z,11.83
2023-04-10T08:08:39.312Z,12.19
2023-04-10T08:11:25.824Z,12.34
2023-04-10T08:13:56.797Z,12.08
2023-04-10T08:16:29.143Z,12.21
2023-04-10T08:18:59.442Z,12.07
2023-04-10T08:24:20.054Z,11.82
2023-04-10T08:26:48.023Z,11.88
2023-04-10T08:29:17.685Z,12.02
2023-04-10T08:31:56.109Z,11.92
2023-04-10T08:34:24.534Z,11.79
2023-04-10T08:36:51.934Z,12.00
2023-04-10T08:39:20.220Z,12.36
2023-04-10T08:41:47.424Z,12.01
2023-04-10T08:44:16.964Z,11.78
2023-04-10T08:46:45.437Z,11.93
2023-04-10T08:49:24.879Z,11.81
2023-04-10T08:51:57.178Z,12.12
2023-04-10T08:54:30.813Z,12.15
2023-04-10T08:57:01.751Z,11.98
2023-04-10T08:59:34.544Z,12.22
2023-04-10T09:02:03.325Z,12.30
2023-04-10T09:04:32.330Z,12.17
2023-04-10T09:07:00.731Z,12.15
2023-04-10T09:09:32.580Z,12.09
2023-04-10T09:12:01.510Z,12.31
2023-04-10T09:14:32.291Z,12.03
2023-04-10T09:17:15.117Z,12.33
2023-04-10T09:19:43.801Z,12.24
2023-04-10T09:22:12.631Z,12.33
2023-04-10T09:24:42.285Z,12.76
2023-04-10T09:27:10.426Z,12.84
2023-04-10T09:29:45.968Z,13.13
2023-04-10T09:32:34.431Z,12.91
2023-04-10T09:35:02.004Z,13.15
2023-04-10T09:37:34.383Z,12.97
2023-04-10T09:40:13.828Z,12.94
2023-04-10T09:42:41.374Z,13.34
2023-04-10T09:48:07.825Z,13.49
2023-04-10T09:50:39.904Z,13.27
2023-04-10T09:53:09.108Z,13.59
2023-04-10T09:55:40.053Z,13.76
2023-04-10T09:58:08.033Z,13.67
2023-04-10T10:00:39.418Z,13.73
2023-04-10T10:03:17.483Z,13.39
2023-04-10T10:05:49.552Z,13.71
2023-04-10T10:08:18.363Z,13.61
2023-04-10T10:10:48.938Z,13.56
2023-04-10T10:13:25.489Z,13.54
2023-04-10T10:16:00.013Z,13.74
2023-04-10T10:18:39.434Z,13.55
2023-04-10T10:21:09.348Z,13.73
2023-04-10T10:23:38.554Z,13.61
2023-04-10T10:26:09.594Z,13.88
2023-04-10T10:28:43.938Z,14.02
2023-04-10T10:31:16.541Z,14.03
2023-04-10T10:33:50.573Z,13.63
2023-04-10T10:36:22.312Z,13.80
2023-04-10T10:39:02.061Z,13.63
2023-04-10T10:41:41.048Z,13.74
2023-04-10T10:44:13.737Z,14.28
2023-04-10T10:46:44.964Z,13.89
2023-04-10T10:49:14.258Z,14.13
2023-04-10T10:51:46.847Z,14.34
2023-04-10T10:54:31.530Z,14.18
2023-04-10T10:56:59.235Z,14.74
2023-04-10T10:59:55.777Z,14.57
2023-04-10T11:02:23.871Z,14.45
2023-04-10T11:04:55.546Z,14.79
2023-04-10T11:07:42.760Z,14.76
2023-04-10T11:10:11.196Z,14.98
2023-04-10T11:13:13.385Z,15.25
2023-04-10T11:15:41.223Z,15.02
2023-04-10T11:18:14.066Z,15.29
2023-04-10T11:21:14.131Z,15.27
2023-04-10T11:24:04.547Z,15.12
2023-04-10T11:26:44.155Z,15.69
2023-04-10T11:29:36.203Z,15.40
2023-04-10T11:32:04.892Z,15.50
2023-04-10T11:34:35.531Z,14.91
2023-04-10T11:37:07.464Z,15.45
2023-04-10T11:39:34.873Z,15.98
2023-04-10T11:42:07.507Z,15.51
2023-04-10T11:44:49.321Z,15.35
2023-04-10T11:47:40.606Z,15.90
2023-04-10T11:50:09.657Z,15.48
2023-04-10T11:52:37.095Z,15.17
2023-04-10T11:55:07.949Z,15.32
2023-04-10T11:57:36.324Z,15.22
2023-04-10T12:00:06.424Z,15.49
2023-04-10T12:02:33.687Z,15.44
2023-04-10T12:05:01.433Z,15.11
2023-04-10T12:07:33.121Z,14.79
2023-04-10T12:10:02.124Z,14.99
2023-04-10T12:12:40.045Z,15.03
2023-04-10T12:15:28.428Z,14.84
2023-04-10T12:17:57.184Z,15.05
2023-04-10T12:20:27.864Z,14.87
2023-04-10T12:22:56.943Z,14.74
2023-04-10T12:25:24.067Z,14.95
2023-04-10T12:28:04.522Z,15.14
2023-04-10T12:30:31.855Z,14.65
2023-04-10T12:33:05.827Z,14.72
2023-04-10T12:35:40.483Z,14.75
2023-04-10T12:38:07.678Z,14.69
2023-04-10T12:40:34.782Z,14.84
2023-04-10T12:43:06.879Z,14.79
2023-04-10T12:45:43.844Z,14.64
2023-04-10T12:48:11.328Z,14.54
2023-04-10T12:50:49.992Z,14.60
2023-04-10T12:53:17.024Z,14.84
2023-04-10T12:55:59.564Z,14.52
2023-04-10T12:58:28.985Z,14.61
2023-04-10T13:00:56.592Z,14.46
2023-04-10T13:03:24.358Z,14.47
2023-04-10T13:05:52.349Z,14.35
2023-04-10T13:08:20.416Z,14.52
2023-04-10T13:10:47.804Z,14.32
2023-04-10T13:13:15.548Z,14.16
2023-04-10T13:15:45.241Z,14.12
2023-04-10T13:18:13.694Z,13.88
2023-04-10T13:20:41.362Z,13.94
2023-04-10T13:23:08.872Z,13.92
2023-04-10T13:25:40.020Z,13.97
2023-04-10T13:28:11.754Z,13.96
2023-04-10T13:30:42.898Z,13.69
2023-04-10T13:33:21.170Z,13.67
2023-04-10T13:35:51.184Z,13.67
2023-04-10T13:38:19.995Z,13.65
2023-04-10T13:40:50.831Z,13.22
2023-04-10T13:43:18.134Z,13.30
2023-04-10T13:45:45.706Z,13.33
2023-04-10T13:48:13.076Z,13.36
2023-04-10T13:50:42.171Z,13.53
2023-04-10T13:53:10.294Z,13.58
2023-04-10T13:55:38.899Z,13.52
2023-04-10T13:58:09.729Z,13.48
2023-04-10T14:00:37.070Z,13.25
2023-04-10T14:03:04.199Z,13.15
2023-04-10T14:05:31.872Z,13.00
2023-04-10T14:08:00.519Z,13.00
2023-04-10T14:10:27.623Z,12.87
2023-04-10T14:12:54.804Z,12.89
2023-04-10T14:15:22.960Z,12.76
2023-04-10T14:17:50.066Z,12.74
2023-04-10T14:20:17.085Z,12.72
2023-04-10T14:22:46.365Z,12.58
2023-04-10T14:25:18.276Z,12.55
2023-04-10T14:27:45.864Z,12.37
2023-04-10T14:30:14.186Z,12.30
2023-04-10T14:32:41.984Z,12.19
2023-04-10T14:35:09.801Z,12.23
2023-04-10T14:37:37.169Z,12.17
2023-04-10T14:40:05.653Z,12.27
2023-04-10T14:42:34.019Z,12.17
2023-04-10T14:45:01.201Z,11.99
2023-04-10T14:47:28.617Z,11.93
2023-04-10T14:49:56.059Z,11.81
2023-04-10T14:52:24.210Z,11.82
2023-04-10T14:54:54.189Z,11.88
2023-04-10T14:57:21.409Z,11.83
2023-04-10T14:59:50.143Z,11.85
2023-04-10T15:02:17.102Z,11.70
2023-04-10T15:04:44.011Z,11.74
2023-04-10T15:07:15.031Z,11.72
2023-04-10T15:09:43.984Z,11.75
2023-04-10T15:12:13.675Z,11.72
2023-04-10T15:14:43.598Z,11.67
2023-04-10T15:17:14.978Z,11.62
2023-04-10T15:19:43.941Z,11.51
2023-04-10T15:22:12.622Z,11.61
2023-04-10T15:24:50.069Z,11.51
2023-04-10T15:27:23.493Z,11.47
2023-04-10T15:29:52.638Z,11.41
2023-04-10T15:32:21.147Z,11.45
2023-04-10T15:34:48.796Z,11.47
2023-04-10T15:37:15.648Z,11.51
2023-04-10T15:39:42.796Z,11.68
2023-04-10T15:42:10.515Z,11.65
2023-04-10T15:44:37.755Z,11.67
2023-04-10T15:47:05.547Z,11.67
2023-04-10T15:49:38.420Z,11.63
2023-04-10T15:52:06.746Z,11.52
2023-04-10T15:54:34.072Z,11.53
2023-04-10T15:57:02.086Z,11.48
2023-04-10T15:59:30.443Z,11.52
2023-04-10T16:01:57.474Z,11.46
2023-04-10T16:04:25.054Z,11.55
2023-04-10T16:06:56.034Z,11.53
2023-04-10T16:09:28.679Z,11.46
2023-04-10T16:11:56.413Z,11.54
2023-04-10T16:14:24.142Z,11.54
2023-04-10T16:16:51.753Z,11.48
2023-04-10T16:19:21.378Z,11.58
2023-04-10T16:21:48.741Z,11.61
2023-04-10T16:24:20.117Z,11.66
2023-04-10T16:26:47.362Z,11.65
2023-04-10T16:29:21.529Z,11.51
2023-04-10T16:31:52.916Z,11.56
2023-04-10T16:34:23.452Z,11.63
2023-04-10T16:36:50.623Z,11.59
2023-04-10T16:39:19.828Z,11.65
2023-04-10T16:41:47.084Z,11.56
2023-04-10T16:44:19.078Z,11.54
2023-04-10T16:46:46.627Z,11.60
2023-04-10T16:49:20.339Z,11.57
2023-04-10T16:51:51.781Z,11.52
2023-04-10T16:54:22.144Z,11.59
2023-04-10T16:56:49.242Z,11.66
2023-04-10T16:59:16.730Z,11.59
2023-04-10T17:01:47.653Z,11.72
2023-04-10T17:04:18.157Z,11.57
2023-04-10T17:06:47.593Z,11.67
2023-04-10T17:09:14.747Z,11.94
2023-04-10T17:11:43.412Z,11.65
2023-04-10T17:14:10.867Z,11.55
2023-04-10T17:16:39.569Z,11.55
2023-04-10T17:19:06.986Z,11.53
2023-04-10T17:21:34.509Z,11.48
2023-04-10T17:24:02.937Z,11.57
2023-04-10T17:26:31.001Z,11.66
2023-04-10T17:29:02.847Z,11.64
2023-04-10T17:31:31.388Z,11.62
2023-04-10T17:33:58.900Z,11.65
2023-04-10T17:36:29.798Z,11.67
2023-04-10T17:39:04.487Z,11.66
2023-04-10T17:41:31.887Z,11.69
2023-04-10T17:43:59.240Z,11.75
2023-04-10T17:46:29.967Z,11.76
2023-04-10T17:49:01.512Z,11.70
2023-04-10T17:51:28.891Z,11.80
2023-04-10T17:53:57.133Z,11.86
2023-04-10T17:56:27.397Z,11.73
2023-04-10T17:58:55.131Z,11.83
2023-04-10T18:01:24.558Z,11.78
2023-04-10T18:03:53.399Z,11.84
2023-04-10T18:06:22.898Z,11.83
2023-04-10T18:08:50.586Z,11.84
2023-04-10T18:11:17.460Z,11.80
2023-04-10T18:13:44.288Z,11.83
2023-04-10T18:16:12.340Z,11.78
2023-04-10T18:18:42.038Z,11.69
2023-04-10T18:21:11.469Z,11.67
2023-04-10T18:23:47.511Z,11.61
2023-04-10T18:26:20.720Z,11.57
2023-04-10T18:28:51.725Z,11.67
2023-04-10T18:31:20.511Z,11.62
2023-04-10T18:34:06.572Z,11.61
2023-04-10T18:37:03.849Z,11.66
2023-04-10T18:39:31.067Z,11.65
2023-04-10T18:41:58.159Z,11.64
2023-04-10T18:44:25.514Z,11.59
2023-04-10T18:47:01.399Z,11.54
2023-04-10T18:49:32.150Z,11.46
2023-04-10T18:52:01.719Z,11.34
2023-04-10T18:54:32.271Z,11.36
2023-04-10T18:59:56.784Z,11.30
2023-04-10T19:02:25.991Z,11.28
2023-04-10T19:04:54.202Z,11.26
2023-04-10T19:07:22.365Z,11.17
2023-04-10T19:09:49.424Z,11.15
2023-04-10T19:12:18.856Z,11.13
2023-04-10T19:14:47.189Z,11.12
2023-04-10T19:17:14.372Z,11.07
2023-04-10T19:19:42.081Z,11.00
2023-04-10T19:22:09.305Z,11.05
2023-04-10T19:24:40.054Z,11.03
2023-04-10T19:27:08.602Z,10.96
2023-04-10T19:29:38.118Z,10.88
2023-04-10T19:32:05.581Z,10.90
2023-04-10T19:34:32.765Z,10.84
2023-04-10T19:36:59.756Z,10.83
2023-04-10T19:39:29.279Z,10.85
2023-04-10T19:41:57.744Z,10.83
2023-04-10T19:44:24.910Z,10.75
2023-04-10T19:46:52.239Z,10.76
2023-04-10T19:49:21.894Z,10.75
2023-04-10T19:51:49.067Z,10.77
2023-04-10T19:54:16.321Z,10.70
2023-04-10T19:56:43.222Z,10.61
2023-04-10T19:59:15.028Z,10.66
2023-04-10T20:01:42.347Z,10.70
2023-04-10T20:04:09.746Z,10.72
2023-04-10T20:06:36.943Z,10.74
2023-04-10T20:09:04.180Z,10.71
2023-04-10T20:11:31.708Z,10.67
2023-04-10T20:13:59.106Z,10.65
2023-04-10T20:16:27.524Z,10.65
2023-04-10T20:18:55.264Z,10.64
2023-04-10T20:21:22.672Z,10.64
2023-04-10T20:23:49.647Z,10.74
2023-04-10T20:26:17.676Z,10.72
2023-04-10T20:28:48.038Z,10.73
2023-04-10T20:31:15.249Z,10.74
2023-04-10T20:33:44.084Z,10.77
2023-04-10T20:36:11.964Z,10.69
2023-04-10T20:38:39.703Z,10.66
2023-04-10T20:41:06.639Z,10.70
2023-04-10T20:43:34.960Z,10.68
2023-04-10T20:46:06.798Z,10.68
2023-04-10T20:48:38.437Z,10.66
2023-04-10T20:51:08.984Z,10.67
2023-04-10T20:53:39.526Z,10.64
2023-04-10T20:56:07.141Z,10.70
2023-04-10T20:58:34.657Z,10.75
2023-04-10T21:01:01.917Z,10.77
2023-04-10T21:03:32.132Z,10.76
2023-04-10T21:05:59.560Z,10.78
2023-04-10T21:08:28.267Z,10.70
2023-04-10T21:10:58.922Z,10.74
2023-04-10T21:13:26.680Z,10.80
2023-04-10T21:15:54.045Z,10.81
2023-04-10T21:18:21.437Z,10.79
2023-04-10T21:20:48.521Z,10.85
2023-04-10T21:23:15.995Z,10.87
2023-04-10T21:25:52.516Z,10.96
2023-04-10T21:28:19.957Z,10.89
2023-04-10T21:30:47.417Z,10.91
2023-04-10T21:33:17.459Z,10.89
2023-04-10T21:35:47.456Z,10.89
2023-04-10T21:38:15.435Z,10.93
2023-04-10T21:40:42.469Z,10.11
2023-04-10T21:43:13.962Z,9.68
2023-04-10T21:45:41.111Z,9.34
2023-04-10T21:48:08.200Z,9.28
2023-04-10T21:50:35.332Z,9.01
2023-04-10T21:53:02.649Z,9.06
2023-04-10T21:55:32.152Z,9.21
2023-04-10T21:57:59.348Z,9.23
2023-04-10T22:00:29.072Z,9.24
2023-04-10T22:02:56.341Z,9.21
2023-04-10T22:05:24.553Z,9.33
2023-04-10T22:07:51.875Z,9.37
2023-04-10T22:10:20.226Z,9.43
2023-04-10T22:12:48.749Z,9.39
2023-04-10T22:15:17.630Z,9.40
2023-04-10T22:17:46.230Z,9.32
2023-04-10T22:20:13.552Z,9.25
2023-04-10T22:22:40.627Z,9.26
2023-04-10T22:25:10.589Z,9.26
2023-04-10T22:27:40.092Z,9.28
2023-04-10T22:30:09.774Z,9.32
2023-04-10T22:32:37.213Z,9.29
2023-04-10T22:35:07.552Z,9.25
2023-04-10T22:37:36.938Z,9.17
2023-04-10T22:40:05.982Z,8.99
2023-04-10T22:42:33.407Z,9.07
2023-04-10T22:45:00.327Z,9.02
2023-04-10T22:47:27.141Z,8.89
2023-04-10T22:49:56.563Z,8.84
2023-04-10T22:52:25.830Z,8.84
2023-04-10T22:54:53.066Z,8.80
2023-04-10T22:57:20.216Z,8.78
2023-04-10T22:59:47.172Z,8.74
2023-04-10T23:02:14.078Z,8.72
2023-04-10T23:04:41.848Z,8.72
2023-04-10T23:07:09.093Z,8.72
2023-04-10T23:09:37.792Z,8.71
2023-04-10T23:12:05.481Z,8.72
2023-04-10T23:14:37.354Z,8.66
2023-04-10T23:17:04.454Z,8.65
2023-04-10T23:19:34.011Z,8.67
2023-04-10T23:22:10.018Z,8.74
2023-04-10T23:24:39.038Z,8.79
2023-04-10T23:27:08.089Z,8.80
2023-04-10T23:29:35.917Z,8.77
2023-04-10T23:32:03.162Z,8.78
2023-04-10T23:34:30.767Z,8.76
2023-04-10T23:37:01.158Z,8.73
2023-04-10T23:39:28.307Z,8.63
2023-04-10T23:41:57.384Z,8.74
2023-04-10T23:44:24.475Z,8.69
2023-04-10T23:46:51.507Z,8.65
2023-04-10T23:49:18.721Z,8.55
2023-04-10T23:51:46.004Z,8.63
2023-04-10T23:54:13.438Z,8.64
2023-04-10T23:56:40.765Z,8.67
2023-04-10T23:59:09.476Z,8.70
